sensor_id;sensor_type;location;lat;lon;timestamp;P1;durP1;ratioP1;P2;durP2;ratioP2
12631;SDS011;6381;45.748;12.106;2024-01-10T00:01:32;21.07;;;18.47;;
12631;SDS011;6381;45.748;12.106;2024-01-10T00:04:02;21.43;;;19.13;;
12631;SDS011;6381;45.748;12.106;2024-01-10T00:06:32;21.80;;;19.47;;
12631;SDS011;6381;45.748;12.106;2024-01-10T00:09:02;22.40;;;19.50;;
12631;SDS011;6381;45.748;12.106;2024-01-10T00:11:34;20.37;;;18.17;;
12631;SDS011;6381;45.748;12.106;2024-01-10T00:14:04;20.33;;;18.17;;
12631;SDS011;6381;45.748;12.106;2024-01-10T00:16:34;22.00;;;19.03;;
12631;SDS011;6381;45.748;12.106;2024-01-10T00:19:04;21.03;;;18.83;;
12631;SDS011;6381;45.748;12.106;2024-01-10T00:21:34;21.17;;;18.37;;
12631;SDS011;6381;45.748;12.106;2024-01-10T00:24:04;20.97;;;18.23;;
12631;SDS011;6381;45.748;12.106;2024-01-10T00:26:36;21.40;;;18.03;;
12631;SDS011;6381;45.748;12.106;2024-01-10T00:29:06;19.23;;;17.23;;
12631;SDS011;6381;45.748;12.106;2024-01-10T00:31:36;18.80;;;16.80;;
12631;SDS011;6381;45.748;12.106;2024-01-10T00:34:07;19.03;;;17.03;;
12631;SDS011;6381;45.748;12.106;2024-01-10T00:36:36;20.63;;;18.43;;
12631;SDS011;6381;45.748;12.106;2024-01-10T00:39:06;20.13;;;17.80;;
12631;SDS011;6381;45.748;12.106;2024-01-10T00:41:38;20.27;;;17.27;;
12631;SDS011;6381;45.748;12.106;2024-01-10T00:44:08;19.23;;;16.80;;
12631;SDS011;6381;45.748;12.106;2024-01-10T00:46:37;18.63;;;16.53;;
12631;SDS011;6381;45.748;12.106;2024-01-10T00:49:07;17.03;;;15.30;;
12631;SDS011;6381;45.748;12.106;2024-01-10T00:51:36;18.93;;;16.00;;
12631;SDS011;6381;45.748;12.106;2024-01-10T00:54:06;16.80;;;15.07;;
12631;SDS011;6381;45.748;12.106;2024-01-10T00:56:36;16.47;;;14.80;;
12631;SDS011;6381;45.748;12.106;2024-01-10T00:59:07;16.57;;;14.87;;
12631;SDS011;6381;45.748;12.106;2024-01-10T01:01:37;16.50;;;14.63;;
12631;SDS011;6381;45.748;12.106;2024-01-10T01:04:07;15.87;;;14.17;;
12631;SDS011;6381;45.748;12.106;2024-01-10T01:06:37;17.47;;;13.33;;
12631;SDS011;6381;45.748;12.106;2024-01-10T01:09:07;15.63;;;13.77;;
12631;SDS011;6381;45.748;12.106;2024-01-10T01:11:37;16.80;;;13.70;;
12631;SDS011;6381;45.748;12.106;2024-01-10T01:14:08;15.63;;;14.03;;
12631;SDS011;6381;45.748;12.106;2024-01-10T01:16:38;14.30;;;12.87;;
12631;SDS011;6381;45.748;12.106;2024-01-10T01:19:08;15.73;;;14.17;;
12631;SDS011;6381;45.748;12.106;2024-01-10T01:21:37;15.07;;;12.90;;
12631;SDS011;6381;45.748;12.106;2024-01-10T01:24:08;14.67;;;13.20;;
12631;SDS011;6381;45.748;12.106;2024-01-10T01:26:38;14.87;;;13.27;;
12631;SDS011;6381;45.748;12.106;2024-01-10T01:29:09;17.00;;;14.50;;
12631;SDS011;6381;45.748;12.106;2024-01-10T01:31:41;18.13;;;15.73;;
12631;SDS011;6381;45.748;12.106;2024-01-10T01:34:11;16.20;;;14.53;;
12631;SDS011;6381;45.748;12.106;2024-01-10T01:36:40;16.50;;;14.27;;
12631;SDS011;6381;45.748;12.106;2024-01-10T01:39:10;16.37;;;14.60;;
12631;SDS011;6381;45.748;12.106;2024-01-10T01:41:40;14.90;;;13.47;;
12631;SDS011;6381;45.748;12.106;2024-01-10T01:44:10;15.67;;;14.03;;
12631;SDS011;6381;45.748;12.106;2024-01-10T01:46:43;14.70;;;13.07;;
12631;SDS011;6381;45.748;12.106;2024-01-10T01:49:14;14.77;;;13.17;;
12631;SDS011;6381;45.748;12.106;2024-01-10T01:51:44;14.07;;;12.67;;
12631;SDS011;6381;45.748;12.106;2024-01-10T01:54:14;14.63;;;13.13;;
12631;SDS011;6381;45.748;12.106;2024-01-10T01:56:44;13.93;;;12.43;;
12631;SDS011;6381;45.748;12.106;2024-01-10T01:59:15;14.13;;;12.73;;
12631;SDS011;6381;45.748;12.106;2024-01-10T02:01:46;14.43;;;12.93;;
12631;SDS011;6381;45.748;12.106;2024-01-10T02:04:16;14.20;;;12.63;;
12631;SDS011;6381;45.748;12.106;2024-01-10T02:06:46;14.17;;;12.40;;
12631;SDS011;6381;45.748;12.106;2024-01-10T02:09:16;14.60;;;13.10;;
12631;SDS011;6381;45.748;12.106;2024-01-10T02:11:46;14.43;;;12.93;;
12631;SDS011;6381;45.748;12.106;2024-01-10T02:14:17;14.97;;;12.57;;
12631;SDS011;6381;45.748;12.106;2024-01-10T02:16:48;13.97;;;12.57;;
12631;SDS011;6381;45.748;12.106;2024-01-10T02:19:18;14.27;;;12.77;;
12631;SDS011;6381;45.748;12.106;2024-01-10T02:21:49;14.23;;;12.73;;
12631;SDS011;6381;45.748;12.106;2024-01-10T02:24:19;13.93;;;12.47;;
12631;SDS011;6381;45.748;12.106;2024-01-10T02:26:50;13.67;;;12.27;;
12631;SDS011;6381;45.748;12.106;2024-01-10T02:29:21;13.40;;;12.00;;
12631;SDS011;6381;45.748;12.106;2024-01-10T02:31:52;14.27;;;12.83;;
12631;SDS011;6381;45.748;12.106;2024-01-10T02:34:22;14.67;;;12.10;;
12631;SDS011;6381;45.748;12.106;2024-01-10T02:36:51;13.37;;;11.97;;
12631;SDS011;6381;45.748;12.106;2024-01-10T02:39:21;13.93;;;12.53;;
12631;SDS011;6381;45.748;12.106;2024-01-10T02:41:53;14.00;;;12.17;;
12631;SDS011;6381;45.748;12.106;2024-01-10T02:44:22;13.17;;;11.80;;
12631;SDS011;6381;45.748;12.106;2024-01-10T02:46:52;14.80;;;13.00;;
12631;SDS011;6381;45.748;12.106;2024-01-10T02:49:22;13.70;;;12.13;;
12631;SDS011;6381;45.748;12.106;2024-01-10T02:51:52;17.67;;;13.03;;
12631;SDS011;6381;45.748;12.106;2024-01-10T02:54:21;18.17;;;15.10;;
12631;SDS011;6381;45.748;12.106;2024-01-10T02:56:53;15.50;;;13.90;;
12631;SDS011;6381;45.748;12.106;2024-01-10T02:59:23;16.07;;;13.90;;
12631;SDS011;6381;45.748;12.106;2024-01-10T03:01:53;14.40;;;12.93;;
12631;SDS011;6381;45.748;12.106;2024-01-10T03:04:22;15.23;;;13.53;;
12631;SDS011;6381;45.748;12.106;2024-01-10T03:06:52;14.27;;;12.87;;
12631;SDS011;6381;45.748;12.106;2024-01-10T03:09:22;17.77;;;14.43;;
12631;SDS011;6381;45.748;12.106;2024-01-10T03:11:53;15.33;;;13.50;;
12631;SDS011;6381;45.748;12.106;2024-01-10T03:14:23;14.87;;;13.37;;
12631;SDS011;6381;45.748;12.106;2024-01-10T03:16:53;14.57;;;13.00;;
12631;SDS011;6381;45.748;12.106;2024-01-10T03:19:22;14.90;;;13.43;;
12631;SDS011;6381;45.748;12.106;2024-01-10T03:21:52;14.80;;;13.30;;
12631;SDS011;6381;45.748;12.106;2024-01-10T03:24:22;14.83;;;13.03;;
12631;SDS011;6381;45.748;12.106;2024-01-10T03:26:56;16.07;;;13.43;;
12631;SDS011;6381;45.748;12.106;2024-01-10T03:29:25;14.80;;;13.17;;
12631;SDS011;6381;45.748;12.106;2024-01-10T03:31:55;14.20;;;12.80;;
12631;SDS011;6381;45.748;12.106;2024-01-10T03:34:25;13.97;;;12.53;;
12631;SDS011;6381;45.748;12.106;2024-01-10T03:36:54;15.90;;;13.23;;
12631;SDS011;6381;45.748;12.106;2024-01-10T03:39:24;15.03;;;13.53;;
12631;SDS011;6381;45.748;12.106;2024-01-10T03:41:53;15.17;;;13.40;;
12631;SDS011;6381;45.748;12.106;2024-01-10T03:44:26;14.53;;;13.13;;
12631;SDS011;6381;45.748;12.106;2024-01-10T03:46:56;16.00;;;13.97;;
12631;SDS011;6381;45.748;12.106;2024-01-10T03:49:26;14.70;;;13.17;;
12631;SDS011;6381;45.748;12.106;2024-01-10T03:51:56;14.90;;;13.27;;
12631;SDS011;6381;45.748;12.106;2024-01-10T03:54:25;15.13;;;12.97;;
12631;SDS011;6381;45.748;12.106;2024-01-10T03:56:55;15.60;;;14.00;;
12631;SDS011;6381;45.748;12.106;2024-01-10T03:59:27;16.93;;;15.23;;
12631;SDS011;6381;45.748;12.106;2024-01-10T04:01:56;17.77;;;15.93;;
12631;SDS011;6381;45.748;12.106;2024-01-10T04:04:27;16.97;;;15.17;;
12631;SDS011;6381;45.748;12.106;2024-01-10T04:06:57;16.57;;;14.90;;
12631;SDS011;6381;45.748;12.106;2024-01-10T04:09:27;17.70;;;15.80;;
12631;SDS011;6381;45.748;12.106;2024-01-10T04:11:57;17.23;;;15.53;;
12631;SDS011;6381;45.748;12.106;2024-01-10T04:14:28;16.90;;;15.10;;
12631;SDS011;6381;45.748;12.106;2024-01-10T04:16:58;16.37;;;14.67;;
12631;SDS011;6381;45.748;12.106;2024-01-10T04:19:28;16.23;;;14.27;;
12631;SDS011;6381;45.748;12.106;2024-01-10T04:21:58;15.77;;;14.17;;
12631;SDS011;6381;45.748;12.106;2024-01-10T04:24:28;15.60;;;14.10;;
12631;SDS011;6381;45.748;12.106;2024-01-10T04:26:58;14.87;;;13.37;;
12631;SDS011;6381;45.748;12.106;2024-01-10T04:29:30;15.70;;;14.00;;
12631;SDS011;6381;45.748;12.106;2024-01-10T04:31:59;18.63;;;16.63;;
12631;SDS011;6381;45.748;12.106;2024-01-10T04:34:29;18.10;;;16.20;;
12631;SDS011;6381;45.748;12.106;2024-01-10T04:36:59;16.07;;;14.27;;
12631;SDS011;6381;45.748;12.106;2024-01-10T04:39:29;16.23;;;14.03;;
12631;SDS011;6381;45.748;12.106;2024-01-10T04:41:59;16.13;;;14.43;;
12631;SDS011;6381;45.748;12.106;2024-01-10T04:44:30;14.30;;;12.83;;
12631;SDS011;6381;45.748;12.106;2024-01-10T04:47:00;15.40;;;13.53;;
12631;SDS011;6381;45.748;12.106;2024-01-10T04:49:30;16.63;;;14.03;;
12631;SDS011;6381;45.748;12.106;2024-01-10T04:52:00;19.67;;;13.70;;
12631;SDS011;6381;45.748;12.106;2024-01-10T04:54:30;15.80;;;14.20;;
12631;SDS011;6381;45.748;12.106;2024-01-10T04:57:00;17.13;;;15.33;;
12631;SDS011;6381;45.748;12.106;2024-01-10T04:59:31;16.77;;;15.03;;
12631;SDS011;6381;45.748;12.106;2024-01-10T05:02:00;18.17;;;16.27;;
12631;SDS011;6381;45.748;12.106;2024-01-10T05:04:30;19.40;;;17.40;;
12631;SDS011;6381;45.748;12.106;2024-01-10T05:07:00;23.07;;;20.73;;
12631;SDS011;6381;45.748;12.106;2024-01-10T05:09:29;24.27;;;20.07;;
12631;SDS011;6381;45.748;12.106;2024-01-10T05:11:59;27.37;;;24.57;;
12631;SDS011;6381;45.748;12.106;2024-01-10T05:14:29;20.80;;;18.70;;
12631;SDS011;6381;45.748;12.106;2024-01-10T05:17:00;18.57;;;16.60;;
12631;SDS011;6381;45.748;12.106;2024-01-10T05:19:30;19.30;;;17.17;;
12631;SDS011;6381;45.748;12.106;2024-01-10T05:22:00;20.13;;;17.93;;
12631;SDS011;6381;45.748;12.106;2024-01-10T05:24:30;19.57;;;17.47;;
12631;SDS011;6381;45.748;12.106;2024-01-10T05:27:00;20.27;;;17.93;;
12631;SDS011;6381;45.748;12.106;2024-01-10T05:29:30;18.60;;;16.60;;
12631;SDS011;6381;45.748;12.106;2024-01-10T05:32:01;18.13;;;16.23;;
12631;SDS011;6381;45.748;12.106;2024-01-10T05:34:31;16.73;;;14.77;;
12631;SDS011;6381;45.748;12.106;2024-01-10T05:37:01;15.93;;;14.23;;
12631;SDS011;6381;45.748;12.106;2024-01-10T05:39:31;14.77;;;13.27;;
12631;SDS011;6381;45.748;12.106;2024-01-10T05:42:01;15.97;;;13.43;;
12631;SDS011;6381;45.748;12.106;2024-01-10T05:44:32;14.83;;;12.87;;
12631;SDS011;6381;45.748;12.106;2024-01-10T05:47:03;15.97;;;14.27;;
12631;SDS011;6381;45.748;12.106;2024-01-10T05:49:33;14.40;;;12.80;;
12631;SDS011;6381;45.748;12.106;2024-01-10T05:52:03;13.97;;;12.47;;
12631;SDS011;6381;45.748;12.106;2024-01-10T05:54:34;14.07;;;12.50;;
12631;SDS011;6381;45.748;12.106;2024-01-10T05:57:04;13.53;;;12.13;;
12631;SDS011;6381;45.748;12.106;2024-01-10T05:59:33;14.97;;;13.37;;
12631;SDS011;6381;45.748;12.106;2024-01-10T06:02:05;15.07;;;12.87;;
12631;SDS011;6381;45.748;12.106;2024-01-10T06:04:35;17.70;;;13.33;;
12631;SDS011;6381;45.748;12.106;2024-01-10T06:07:05;13.53;;;12.13;;
12631;SDS011;6381;45.748;12.106;2024-01-10T06:09:34;18.80;;;13.23;;
12631;SDS011;6381;45.748;12.106;2024-01-10T06:12:05;14.53;;;13.07;;
12631;SDS011;6381;45.748;12.106;2024-01-10T06:14:36;16.17;;;14.13;;
12631;SDS011;6381;45.748;12.106;2024-01-10T06:17:08;14.63;;;13.07;;
12631;SDS011;6381;45.748;12.106;2024-01-10T06:19:38;16.73;;;13.70;;
12631;SDS011;6381;45.748;12.106;2024-01-10T06:22:08;15.57;;;13.87;;
12631;SDS011;6381;45.748;12.106;2024-01-10T06:24:38;17.70;;;14.67;;
12631;SDS011;6381;45.748;12.106;2024-01-10T06:27:09;18.77;;;15.93;;
12631;SDS011;6381;45.748;12.106;2024-01-10T06:29:39;19.07;;;16.93;;
12631;SDS011;6381;45.748;12.106;2024-01-10T06:32:10;19.53;;;17.53;;
12631;SDS011;6381;45.748;12.106;2024-01-10T06:34:42;18.57;;;16.23;;
12631;SDS011;6381;45.748;12.106;2024-01-10T06:37:12;24.83;;;20.50;;
12631;SDS011;6381;45.748;12.106;2024-01-10T06:39:42;24.03;;;19.40;;
12631;SDS011;6381;45.748;12.106;2024-01-10T06:42:14;23.83;;;17.97;;
12631;SDS011;6381;45.748;12.106;2024-01-10T06:44:44;19.40;;;16.03;;
12631;SDS011;6381;45.748;12.106;2024-01-10T06:47:15;19.93;;;16.60;;
12631;SDS011;6381;45.748;12.106;2024-01-10T06:49:45;18.97;;;17.00;;
12631;SDS011;6381;45.748;12.106;2024-01-10T06:52:15;16.50;;;14.70;;
12631;SDS011;6381;45.748;12.106;2024-01-10T06:54:45;16.27;;;14.60;;
12631;SDS011;6381;45.748;12.106;2024-01-10T06:57:15;14.43;;;12.80;;
12631;SDS011;6381;45.748;12.106;2024-01-10T06:59:45;14.80;;;13.30;;
12631;SDS011;6381;45.748;12.106;2024-01-10T07:02:16;16.17;;;13.67;;
12631;SDS011;6381;45.748;12.106;2024-01-10T07:04:46;17.27;;;14.10;;
12631;SDS011;6381;45.748;12.106;2024-01-10T07:07:16;16.70;;;13.57;;
12631;SDS011;6381;45.748;12.106;2024-01-10T07:09:46;15.70;;;14.10;;
12631;SDS011;6381;45.748;12.106;2024-01-10T07:12:16;20.20;;;15.83;;
12631;SDS011;6381;45.748;12.106;2024-01-10T07:14:45;19.43;;;16.70;;
12631;SDS011;6381;45.748;12.106;2024-01-10T07:17:16;18.17;;;16.33;;
12631;SDS011;6381;45.748;12.106;2024-01-10T07:19:53;17.40;;;14.80;;
12631;SDS011;6381;45.748;12.106;2024-01-10T07:22:24;15.10;;;13.53;;
12631;SDS011;6381;45.748;12.106;2024-01-10T07:24:53;14.33;;;12.83;;
12631;SDS011;6381;45.748;12.106;2024-01-10T07:27:24;15.80;;;13.23;;
12631;SDS011;6381;45.748;12.106;2024-01-10T07:29:53;14.27;;;12.77;;
12631;SDS011;6381;45.748;12.106;2024-01-10T07:45:18;14.93;;;12.40;;
12631;SDS011;6381;45.748;12.106;2024-01-10T07:47:48;14.50;;;13.00;;
12631;SDS011;6381;45.748;12.106;2024-01-10T07:50:17;16.73;;;14.00;;
12631;SDS011;6381;45.748;12.106;2024-01-10T07:52:46;17.10;;;13.40;;
12631;SDS011;6381;45.748;12.106;2024-01-10T07:55:15;15.37;;;13.43;;
12631;SDS011;6381;45.748;12.106;2024-01-10T07:57:44;15.13;;;13.63;;
12631;SDS011;6381;45.748;12.106;2024-01-10T08:00:13;14.30;;;12.90;;
12631;SDS011;6381;45.748;12.106;2024-01-10T08:02:43;16.20;;;13.87;;
12631;SDS011;6381;45.748;12.106;2024-01-10T08:05:12;19.43;;;17.33;;
12631;SDS011;6381;45.748;12.106;2024-01-10T08:07:41;19.17;;;16.47;;
12631;SDS011;6381;45.748;12.106;2024-01-10T08:10:10;15.37;;;13.50;;
12631;SDS011;6381;45.748;12.106;2024-01-10T08:12:40;13.40;;;12.00;;
12631;SDS011;6381;45.748;12.106;2024-01-10T08:15:10;14.07;;;12.67;;
12631;SDS011;6381;45.748;12.106;2024-01-10T08:17:39;17.57;;;14.90;;
12631;SDS011;6381;45.748;12.106;2024-01-10T08:20:09;16.03;;;14.33;;
12631;SDS011;6381;45.748;12.106;2024-01-10T08:22:41;15.83;;;13.90;;
12631;SDS011;6381;45.748;12.106;2024-01-10T08:25:11;15.40;;;13.03;;
12631;SDS011;6381;45.748;12.106;2024-01-10T08:27:43;15.23;;;13.63;;
12631;SDS011;6381;45.748;12.106;2024-01-10T08:30:12;14.73;;;13.23;;
12631;SDS011;6381;45.748;12.106;2024-01-10T08:32:41;14.57;;;13.07;;
12631;SDS011;6381;45.748;12.106;2024-01-10T08:35:11;14.37;;;12.87;;
12631;SDS011;6381;45.748;12.106;2024-01-10T08:37:40;14.23;;;12.83;;
12631;SDS011;6381;45.748;12.106;2024-01-10T08:40:10;15.03;;;13.40;;
12631;SDS011;6381;45.748;12.106;2024-01-10T08:42:41;15.10;;;13.50;;
12631;SDS011;6381;45.748;12.106;2024-01-10T08:45:10;16.17;;;14.47;;
12631;SDS011;6381;45.748;12.106;2024-01-10T08:47:39;15.33;;;13.70;;
12631;SDS011;6381;45.748;12.106;2024-01-10T08:50:08;19.17;;;16.70;;
12631;SDS011;6381;45.748;12.106;2024-01-10T08:52:39;16.63;;;13.57;;
12631;SDS011;6381;45.748;12.106;2024-01-10T08:55:08;19.57;;;16.67;;
12631;SDS011;6381;45.748;12.106;2024-01-10T08:57:40;17.27;;;15.40;;
12631;SDS011;6381;45.748;12.106;2024-01-10T09:00:09;18.33;;;16.33;;
12631;SDS011;6381;45.748;12.106;2024-01-10T09:02:39;17.13;;;14.87;;
12631;SDS011;6381;45.748;12.106;2024-01-10T09:05:08;16.90;;;14.90;;
12631;SDS011;6381;45.748;12.106;2024-01-10T09:07:39;19.37;;;16.50;;
12631;SDS011;6381;45.748;12.106;2024-01-10T09:10:09;20.83;;;17.57;;
12631;SDS011;6381;45.748;12.106;2024-01-10T09:12:38;18.23;;;15.60;;
12631;SDS011;6381;45.748;12.106;2024-01-10T09:15:10;18.53;;;15.90;;
12631;SDS011;6381;45.748;12.106;2024-01-10T09:17:41;25.07;;;20.50;;
12631;SDS011;6381;45.748;12.106;2024-01-10T09:20:10;26.40;;;21.50;;
12631;SDS011;6381;45.748;12.106;2024-01-10T09:22:41;16.50;;;14.83;;
12631;SDS011;6381;45.748;12.106;2024-01-10T09:25:10;20.77;;;17.97;;
12631;SDS011;6381;45.748;12.106;2024-01-10T09:27:40;20.80;;;16.77;;
12631;SDS011;6381;45.748;12.106;2024-01-10T09:30:11;40.63;;;29.10;;
12631;SDS011;6381;45.748;12.106;2024-01-10T09:32:41;29.90;;;22.93;;
12631;SDS011;6381;45.748;12.106;2024-01-10T09:35:10;23.13;;;17.80;;
12631;SDS011;6381;45.748;12.106;2024-01-10T09:37:39;18.10;;;15.93;;
12631;SDS011;6381;45.748;12.106;2024-01-10T09:40:09;16.57;;;13.67;;
12631;SDS011;6381;45.748;12.106;2024-01-10T09:42:39;14.07;;;12.57;;
12631;SDS011;6381;45.748;12.106;2024-01-10T09:45:08;12.47;;;11.13;;
12631;SDS011;6381;45.748;12.106;2024-01-10T09:47:39;16.43;;;14.17;;
12631;SDS011;6381;45.748;12.106;2024-01-10T09:50:12;13.40;;;12.00;;
12631;SDS011;6381;45.748;12.106;2024-01-10T09:52:48;15.63;;;13.20;;
12631;SDS011;6381;45.748;12.106;2024-01-10T09:55:34;14.73;;;13.23;;
12631;SDS011;6381;45.748;12.106;2024-01-10T09:58:06;20.57;;;16.50;;
12631;SDS011;6381;45.748;12.106;2024-01-10T10:00:36;17.20;;;15.40;;
12631;SDS011;6381;45.748;12.106;2024-01-10T10:03:16;18.63;;;14.83;;
12631;SDS011;6381;45.748;12.106;2024-01-10T10:05:48;15.43;;;13.30;;
12631;SDS011;6381;45.748;12.106;2024-01-10T10:11:17;13.47;;;12.07;;
12631;SDS011;6381;45.748;12.106;2024-01-10T10:13:49;12.40;;;10.90;;
12631;SDS011;6381;45.748;12.106;2024-01-10T10:16:22;11.87;;;10.67;;
12631;SDS011;6381;45.748;12.106;2024-01-10T10:18:55;12.37;;;11.00;;
12631;SDS011;6381;45.748;12.106;2024-01-10T10:21:25;15.57;;;11.20;;
12631;SDS011;6381;45.748;12.106;2024-01-10T10:23:58;12.50;;;10.60;;
12631;SDS011;6381;45.748;12.106;2024-01-10T10:26:28;13.27;;;11.17;;
12631;SDS011;6381;45.748;12.106;2024-01-10T10:28:59;14.50;;;10.90;;
12631;SDS011;6381;45.748;12.106;2024-01-10T10:31:28;12.07;;;10.77;;
12631;SDS011;6381;45.748;12.106;2024-01-10T10:33:59;10.90;;;9.80;;
12631;SDS011;6381;45.748;12.106;2024-01-10T10:36:29;12.00;;;10.60;;
12631;SDS011;6381;45.748;12.106;2024-01-10T10:38:59;11.73;;;9.70;;
12631;SDS011;6381;45.748;12.106;2024-01-10T10:41:32;12.97;;;10.90;;
12631;SDS011;6381;45.748;12.106;2024-01-10T10:44:03;13.20;;;10.03;;
12631;SDS011;6381;45.748;12.106;2024-01-10T10:46:34;11.13;;;9.97;;
12631;SDS011;6381;45.748;12.106;2024-01-10T10:49:06;10.77;;;9.67;;
12631;SDS011;6381;45.748;12.106;2024-01-10T10:51:38;10.93;;;9.80;;
12631;SDS011;6381;45.748;12.106;2024-01-10T10:54:07;11.83;;;10.57;;
12631;SDS011;6381;45.748;12.106;2024-01-10T10:56:37;13.50;;;10.50;;
12631;SDS011;6381;45.748;12.106;2024-01-10T10:59:07;12.23;;;10.20;;
12631;SDS011;6381;45.748;12.106;2024-01-10T11:01:36;12.93;;;11.40;;
12631;SDS011;6381;45.748;12.106;2024-01-10T11:04:05;11.43;;;10.30;;
12631;SDS011;6381;45.748;12.106;2024-01-10T11:06:34;12.53;;;10.33;;
12631;SDS011;6381;45.748;12.106;2024-01-10T11:09:05;13.17;;;10.73;;
12631;SDS011;6381;45.748;12.106;2024-01-10T11:11:42;10.60;;;9.50;;
12631;SDS011;6381;45.748;12.106;2024-01-10T11:14:19;11.83;;;9.80;;
12631;SDS011;6381;45.748;12.106;2024-01-10T11:16:59;10.43;;;9.33;;
12631;SDS011;6381;45.748;12.106;2024-01-10T11:19:43;10.40;;;9.20;;
12631;SDS011;6381;45.748;12.106;2024-01-10T11:22:16;10.60;;;9.40;;
12631;SDS011;6381;45.748;12.106;2024-01-10T11:24:49;11.40;;;10.20;;
12631;SDS011;6381;45.748;12.106;2024-01-10T11:27:19;11.50;;;9.67;;
12631;SDS011;6381;45.748;12.106;2024-01-10T11:29:49;11.30;;;10.10;;
12631;SDS011;6381;45.748;12.106;2024-01-10T11:32:22;10.23;;;9.20;;
12631;SDS011;6381;45.748;12.106;2024-01-10T11:34:54;13.27;;;10.57;;
12631;SDS011;6381;45.748;12.106;2024-01-10T11:37:23;12.23;;;9.77;;
12631;SDS011;6381;45.748;12.106;2024-01-10T11:39:56;10.90;;;9.77;;
12631;SDS011;6381;45.748;12.106;2024-01-10T11:42:30;12.03;;;9.90;;
12631;SDS011;6381;45.748;12.106;2024-01-10T11:45:09;13.87;;;12.33;;
12631;SDS011;6381;45.748;12.106;2024-01-10T11:47:44;12.10;;;10.67;;
12631;SDS011;6381;45.748;12.106;2024-01-10T11:50:13;12.70;;;9.37;;
12631;SDS011;6381;45.748;12.106;2024-01-10T11:52:48;11.00;;;9.83;;
12631;SDS011;6381;45.748;12.106;2024-01-10T11:58:16;10.23;;;9.13;;
12631;SDS011;6381;45.748;12.106;2024-01-10T12:00:45;10.00;;;9.00;;
12631;SDS011;6381;45.748;12.106;2024-01-10T12:03:15;11.23;;;9.17;;
12631;SDS011;6381;45.748;12.106;2024-01-10T12:05:45;11.23;;;10.03;;
12631;SDS011;6381;45.748;12.106;2024-01-10T12:08:14;9.40;;;8.47;;
12631;SDS011;6381;45.748;12.106;2024-01-10T12:10:46;12.10;;;9.93;;
12631;SDS011;6381;45.748;12.106;2024-01-10T12:13:16;12.43;;;11.20;;
12631;SDS011;6381;45.748;12.106;2024-01-10T12:15:45;12.30;;;9.93;;
12631;SDS011;6381;45.748;12.106;2024-01-10T12:18:13;12.23;;;10.20;;
12631;SDS011;6381;45.748;12.106;2024-01-10T12:20:43;11.20;;;8.97;;
12631;SDS011;6381;45.748;12.106;2024-01-10T12:23:12;11.33;;;9.23;;
12631;SDS011;6381;45.748;12.106;2024-01-10T12:25:40;11.57;;;9.00;;
12631;SDS011;6381;45.748;12.106;2024-01-10T12:28:09;10.30;;;9.20;;
12631;SDS011;6381;45.748;12.106;2024-01-10T12:30:40;13.03;;;9.40;;
12631;SDS011;6381;45.748;12.106;2024-01-10T12:33:09;10.50;;;8.97;;
12631;SDS011;6381;45.748;12.106;2024-01-10T12:35:38;10.10;;;8.70;;
12631;SDS011;6381;45.748;12.106;2024-01-10T12:38:10;11.13;;;9.57;;
12631;SDS011;6381;45.748;12.106;2024-01-10T12:40:39;12.43;;;10.37;;
12631;SDS011;6381;45.748;12.106;2024-01-10T12:43:08;9.80;;;8.73;;
12631;SDS011;6381;45.748;12.106;2024-01-10T12:45:40;11.23;;;9.50;;
12631;SDS011;6381;45.748;12.106;2024-01-10T12:48:13;11.70;;;9.27;;
12631;SDS011;6381;45.748;12.106;2024-01-10T12:50:44;12.97;;;9.17;;
12631;SDS011;6381;45.748;12.106;2024-01-10T12:53:12;10.17;;;8.70;;
12631;SDS011;6381;45.748;12.106;2024-01-10T12:55:41;10.20;;;8.67;;
12631;SDS011;6381;45.748;12.106;2024-01-10T12:58:10;10.53;;;8.63;;
12631;SDS011;6381;45.748;12.106;2024-01-10T13:00:40;10.37;;;9.10;;
12631;SDS011;6381;45.748;12.106;2024-01-10T13:03:09;11.60;;;10.40;;
12631;SDS011;6381;45.748;12.106;2024-01-10T13:05:39;16.23;;;11.33;;
12631;SDS011;6381;45.748;12.106;2024-01-10T13:08:07;14.70;;;9.23;;
12631;SDS011;6381;45.748;12.106;2024-01-10T13:10:38;11.37;;;8.03;;
12631;SDS011;6381;45.748;12.106;2024-01-10T13:13:06;11.57;;;8.70;;
12631;SDS011;6381;45.748;12.106;2024-01-10T13:15:35;11.77;;;10.00;;
12631;SDS011;6381;45.748;12.106;2024-01-10T13:18:05;10.67;;;9.57;;
12631;SDS011;6381;45.748;12.106;2024-01-10T13:20:36;10.57;;;7.97;;
12631;SDS011;6381;45.748;12.106;2024-01-10T13:23:05;11.37;;;8.40;;
12631;SDS011;6381;45.748;12.106;2024-01-10T13:25:34;9.97;;;8.50;;
12631;SDS011;6381;45.748;12.106;2024-01-10T13:28:04;15.80;;;10.07;;
12631;SDS011;6381;45.748;12.106;2024-01-10T13:30:33;10.53;;;8.07;;
12631;SDS011;6381;45.748;12.106;2024-01-10T13:33:01;15.43;;;11.13;;
12631;SDS011;6381;45.748;12.106;2024-01-10T13:35:32;9.90;;;8.13;;
12631;SDS011;6381;45.748;12.106;2024-01-10T13:38:00;11.10;;;8.40;;
12631;SDS011;6381;45.748;12.106;2024-01-10T13:40:29;12.33;;;10.70;;
12631;SDS011;6381;45.748;12.106;2024-01-10T13:42:58;11.87;;;9.83;;
12631;SDS011;6381;45.748;12.106;2024-01-10T13:45:29;11.23;;;8.37;;
12631;SDS011;6381;45.748;12.106;2024-01-10T13:47:57;11.03;;;8.13;;
12631;SDS011;6381;45.748;12.106;2024-01-10T13:50:27;12.03;;;8.13;;
12631;SDS011;6381;45.748;12.106;2024-01-10T13:52:58;13.13;;;9.13;;
12631;SDS011;6381;45.748;12.106;2024-01-10T13:55:26;13.60;;;9.20;;
12631;SDS011;6381;45.748;12.106;2024-01-10T13:57:55;12.97;;;8.70;;
12631;SDS011;6381;45.748;12.106;2024-01-10T14:00:24;11.17;;;8.97;;
12631;SDS011;6381;45.748;12.106;2024-01-10T14:02:54;13.50;;;9.60;;
12631;SDS011;6381;45.748;12.106;2024-01-10T14:05:26;13.60;;;9.13;;
12631;SDS011;6381;45.748;12.106;2024-01-10T14:07:55;12.87;;;9.63;;
12631;SDS011;6381;45.748;12.106;2024-01-10T14:10:26;12.00;;;8.50;;
12631;SDS011;6381;45.748;12.106;2024-01-10T14:12:54;16.33;;;9.40;;
12631;SDS011;6381;45.748;12.106;2024-01-10T14:15:23;13.10;;;8.53;;
12631;SDS011;6381;45.748;12.106;2024-01-10T14:17:52;13.73;;;9.37;;
12631;SDS011;6381;45.748;12.106;2024-01-10T14:20:21;17.17;;;9.90;;
12631;SDS011;6381;45.748;12.106;2024-01-10T14:22:50;14.57;;;9.60;;
12631;SDS011;6381;45.748;12.106;2024-01-10T14:25:19;15.90;;;9.70;;
12631;SDS011;6381;45.748;12.106;2024-01-10T14:27:49;16.30;;;10.17;;
12631;SDS011;6381;45.748;12.106;2024-01-10T14:30:19;18.23;;;10.00;;
12631;SDS011;6381;45.748;12.106;2024-01-10T14:32:48;14.33;;;9.40;;
12631;SDS011;6381;45.748;12.106;2024-01-10T14:35:17;15.23;;;9.73;;
12631;SDS011;6381;45.748;12.106;2024-01-10T14:37:47;17.37;;;9.27;;
12631;SDS011;6381;45.748;12.106;2024-01-10T14:40:15;14.07;;;9.17;;
12631;SDS011;6381;45.748;12.106;2024-01-10T14:42:47;13.33;;;8.80;;
12631;SDS011;6381;45.748;12.106;2024-01-10T14:45:17;13.80;;;9.53;;
12631;SDS011;6381;45.748;12.106;2024-01-10T14:47:47;11.23;;;8.67;;
12631;SDS011;6381;45.748;12.106;2024-01-10T14:50:17;14.63;;;9.50;;
12631;SDS011;6381;45.748;12.106;2024-01-10T14:52:46;13.30;;;9.77;;
12631;SDS011;6381;45.748;12.106;2024-01-10T14:55:14;16.40;;;9.03;;
12631;SDS011;6381;45.748;12.106;2024-01-10T14:57:43;11.40;;;8.73;;
12631;SDS011;6381;45.748;12.106;2024-01-10T15:00:12;14.03;;;9.57;;